createdAt,value
2023-05-13T05:01:02.290Z,872.00
2023-05-13T05:02:02.158Z,880.00
2023-05-13T05:03:02.073Z,912.00
2023-05-13T05:04:02.073Z,948.00
2023-05-13T05:05:02.024Z,972.00
2023-05-13T05:06:02.014Z,1032.00
2023-05-13T05:07:01.997Z,1072.00
2023-05-13T05:08:02.004Z,1096.00
2023-05-13T05:09:02.002Z,1112.00
2023-05-13T05:10:01.987Z,1108.00
2023-05-13T05:11:01.977Z,1108.00
2023-05-13T05:12:06.960Z,1144.00
2023-05-13T05:13:01.965Z,1212.00
2023-05-13T05:14:01.934Z,1332.00
2023-05-13T05:15:01.916Z,1360.00
2023-05-13T05:16:01.959Z,1348.00
2023-05-13T05:17:01.986Z,1340.00
2023-05-13T05:18:02.037Z,1416.00
2023-05-13T05:19:01.958Z,1528.00
2023-05-13T05:20:01.861Z,1576.00
2023-05-13T05:21:02.670Z,1564.00
2023-05-13T05:22:01.870Z,1560.00
2023-05-13T05:23:06.868Z,1596.00
2023-05-13T05:24:01.829Z,1616.00
2023-05-13T05:25:01.798Z,1628.00
2023-05-13T05:26:11.151Z,1544.00
2023-05-13T05:27:01.780Z,1540.00
2023-05-13T05:28:01.817Z,1568.00
2023-05-13T05:29:01.759Z,1580.00
2023-05-13T05:30:01.744Z,1700.00
2023-05-13T05:31:01.762Z,1764.00
2023-05-13T05:32:01.785Z,1752.00
2023-05-13T05:33:01.772Z,1700.00
2023-05-13T05:34:06.775Z,1552.00
2023-05-13T05:35:01.686Z,1420.00
2023-05-13T05:36:01.679Z,1384.00
2023-05-13T05:37:01.667Z,1408.00
2023-05-13T05:38:01.655Z,1444.00
2023-05-13T05:39:01.640Z,1460.00
2023-05-13T05:40:01.644Z,1492.00
2023-05-13T05:41:01.619Z,1516.00
2023-05-13T05:42:01.611Z,1580.00
2023-05-13T05:43:01.601Z,1660.00
2023-05-13T05:44:01.583Z,1728.00
2023-05-13T05:45:06.596Z,1728.00
2023-05-13T05:46:01.657Z,1748.00
2023-05-13T05:47:01.565Z,1732.00
2023-05-13T05:48:01.570Z,1808.00
2023-05-13T05:49:01.551Z,2012.00
2023-05-13T05:50:01.524Z,2196.00
2023-05-13T05:51:01.506Z,2224.00
2023-05-13T05:52:01.512Z,2300.00
2023-05-13T05:53:01.493Z,2276.00
2023-05-13T05:54:01.471Z,2184.00
2023-05-13T05:55:01.523Z,2188.00
2023-05-13T05:56:06.487Z,2320.00
2023-05-13T05:57:01.457Z,2144.00
2023-05-13T05:58:01.571Z,1984.00
2023-05-13T05:59:01.419Z,1940.00
2023-05-13T06:00:01.434Z,1968.00
2023-05-13T06:01:01.408Z,2020.00
2023-05-13T06:02:01.445Z,2024.00
2023-05-13T06:03:01.620Z,2088.00
2023-05-13T06:04:01.516Z,2208.00
2023-05-13T06:05:01.392Z,2308.00
2023-05-13T06:06:01.355Z,2392.00
2023-05-13T06:07:06.382Z,2360.00
2023-05-13T06:08:01.322Z,2408.00
2023-05-13T06:09:01.440Z,2368.00
2023-05-13T06:10:01.331Z,2400.00
2023-05-13T06:11:01.290Z,2408.00
2023-05-13T06:12:01.273Z,2256.00
2023-05-13T06:13:01.272Z,2208.00
2023-05-13T06:14:01.253Z,2088.00
2023-05-13T06:15:01.378Z,2060.00
2023-05-13T06:16:01.315Z,2140.00
2023-05-13T06:17:01.213Z,2192.00
2023-05-13T06:18:06.404Z,2264.00
2023-05-13T06:19:01.293Z,2312.00
2023-05-13T06:20:01.220Z,2416.00
2023-05-13T06:21:01.210Z,2416.00
2023-05-13T06:22:03.869Z,2488.00
2023-05-13T06:23:01.191Z,2616.00
2023-05-13T06:24:01.134Z,2812.00
2023-05-13T06:25:01.139Z,3008.00
2023-05-13T06:26:01.135Z,3276.00
2023-05-13T06:27:01.103Z,3284.00
2023-05-13T06:28:03.039Z,3288.00
2023-05-13T06:29:06.114Z,3888.00
2023-05-13T06:30:01.179Z,4292.00
2023-05-13T06:31:01.098Z,4292.00
2023-05-13T06:32:01.068Z,3904.00
2023-05-13T06:33:02.386Z,3460.00
2023-05-13T06:34:01.023Z,3212.00
2023-05-13T06:35:01.115Z,3124.00
2023-05-13T06:36:01.052Z,2640.00
2023-05-13T06:37:01.058Z,2448.00
2023-05-13T06:38:00.994Z,2352.00
2023-05-13T06:39:00.969Z,2140.00
2023-05-13T06:40:05.985Z,2208.00
2023-05-13T06:41:00.953Z,2352.00
2023-05-13T06:42:00.934Z,2832.00
2023-05-13T06:43:00.923Z,2392.00
2023-05-13T06:44:00.930Z,2656.00
2023-05-13T06:45:00.909Z,2868.00
2023-05-13T06:46:00.908Z,2508.00
2023-05-13T06:47:00.905Z,2776.00
2023-05-13T06:48:00.906Z,2844.00
2023-05-13T06:49:00.863Z,3920.00
2023-05-13T06:50:00.887Z,3148.00
2023-05-13T06:51:05.855Z,3444.00
2023-05-13T06:52:00.830Z,3344.00
2023-05-13T06:53:00.857Z,3404.00
2023-05-13T06:54:00.822Z,3296.00
2023-05-13T06:55:00.803Z,3468.00
2023-05-13T06:56:00.774Z,3508.00
2023-05-13T06:57:00.776Z,3612.00
2023-05-13T06:58:00.794Z,3936.00
2023-05-13T06:59:00.758Z,4112.00
2023-05-13T07:00:00.745Z,4216.00
2023-05-13T07:01:00.756Z,4608.00
2023-05-13T07:02:05.730Z,4348.00
2023-05-13T07:03:00.749Z,4196.00
2023-05-13T07:04:00.799Z,4504.00
2023-05-13T07:05:00.672Z,4356.00
2023-05-13T07:06:00.669Z,4580.00
2023-05-13T07:07:00.669Z,4496.00
2023-05-13T07:08:00.656Z,4220.00
2023-05-13T07:09:00.659Z,3968.00
2023-05-13T07:10:00.649Z,4252.00
2023-05-13T07:11:00.607Z,4704.00
2023-05-13T07:12:00.613Z,5400.00
2023-05-13T07:13:05.616Z,6408.00
2023-05-13T07:14:00.580Z,5352.00
2023-05-13T07:15:00.560Z,4852.00
2023-05-13T07:16:00.568Z,4736.00
2023-05-13T07:17:00.599Z,3740.00
2023-05-13T07:18:00.592Z,3240.00
2023-05-13T07:19:00.600Z,3116.00
2023-05-13T07:20:00.512Z,3140.00
2023-05-13T07:21:00.501Z,3504.00
2023-05-13T07:22:00.524Z,3312.00
2023-05-13T07:23:00.496Z,3348.00
2023-05-13T07:24:05.536Z,3552.00
2023-05-13T07:25:00.458Z,4440.00
2023-05-13T07:26:00.436Z,4600.00
2023-05-13T07:27:00.436Z,4208.00
2023-05-13T07:28:00.435Z,3560.00
2023-05-13T07:29:00.403Z,3436.00
2023-05-13T07:30:00.392Z,3480.00
2023-05-13T07:31:00.426Z,3528.00
2023-05-13T07:32:00.378Z,3408.00
2023-05-13T07:33:00.378Z,3336.00
2023-05-13T07:34:00.362Z,3452.00
2023-05-13T07:35:05.363Z,3460.00
2023-05-13T07:36:00.364Z,3372.00
2023-05-13T07:37:00.347Z,3640.00
2023-05-13T07:38:00.314Z,3860.00
2023-05-13T07:39:00.305Z,3440.00
2023-05-13T07:40:00.310Z,3232.00
2023-05-13T07:41:00.284Z,3076.00
2023-05-13T07:42:00.258Z,3128.00
2023-05-13T07:43:00.249Z,2900.00
2023-05-13T07:44:00.234Z,2916.00
2023-05-13T07:45:00.259Z,2924.00
2023-05-13T07:46:05.291Z,3056.00
2023-05-13T07:47:00.271Z,3476.00
2023-05-13T07:48:00.284Z,3644.00
2023-05-13T07:49:00.191Z,4076.00
2023-05-13T07:50:00.182Z,3876.00
2023-05-13T07:51:00.173Z,2500.00
2023-05-13T07:52:00.169Z,2392.00
2023-05-13T07:53:00.154Z,2644.00
2023-05-13T07:54:00.130Z,3440.00
2023-05-13T07:55:00.192Z,3332.00
2023-05-13T07:56:00.169Z,3196.00
2023-05-13T07:57:05.135Z,3484.00
2023-05-13T07:58:00.126Z,3736.00
2023-05-13T07:59:00.075Z,4268.00
2023-05-13T08:00:00.074Z,4784.00
2023-05-13T08:01:00.055Z,5968.00
2023-05-13T08:02:00.107Z,6168.00
2023-05-13T08:03:00.187Z,7228.00
2023-05-13T08:04:00.374Z,6476.00
2023-05-13T08:05:00.078Z,6464.00
2023-05-13T08:06:00.008Z,6504.00
2023-05-13T08:06:59.996Z,6708.00
2023-05-13T08:08:04.991Z,7576.00
2023-05-13T08:08:59.962Z,7656.00
2023-05-13T08:09:59.980Z,7228.00
2023-05-13T08:10:59.942Z,6960.00
2023-05-13T08:11:59.991Z,7400.00
2023-05-13T08:12:59.922Z,7656.00
2023-05-13T08:13:59.936Z,5884.00
2023-05-13T08:14:59.904Z,7580.00
2023-05-13T08:15:59.939Z,7688.00
2023-05-13T08:16:59.882Z,7512.00
2023-05-13T08:17:59.917Z,5368.00
2023-05-13T08:19:04.976Z,4748.00
2023-05-13T08:20:00.197Z,4684.00
2023-05-13T08:20:59.833Z,4712.00
2023-05-13T08:21:59.855Z,4796.00
2023-05-13T08:22:59.804Z,4812.00
2023-05-13T08:23:59.817Z,5508.00
2023-05-13T08:24:59.783Z,4628.00
2023-05-13T08:25:59.774Z,4428.00
2023-05-13T08:26:59.760Z,4560.00
2023-05-13T08:27:59.790Z,4640.00
2023-05-13T08:28:59.747Z,5104.00
2023-05-13T08:30:04.748Z,7872.00
2023-05-13T08:30:59.718Z,35712.00
2023-05-13T08:31:59.765Z,32384.00
2023-05-13T08:32:59.764Z,39136.00
2023-05-13T08:33:59.709Z,21632.00
2023-05-13T08:34:59.673Z,5208.00
2023-05-13T08:35:59.660Z,4712.00
2023-05-13T08:36:59.658Z,4148.00
2023-05-13T08:37:59.646Z,4052.00
2023-05-13T08:38:59.629Z,4036.00
2023-05-13T08:39:59.638Z,6840.00
2023-05-13T08:41:04.623Z,4188.00
2023-05-13T08:41:59.599Z,4052.00
2023-05-13T08:42:59.622Z,4016.00
2023-05-13T08:43:59.735Z,4116.00
2023-05-13T08:44:59.566Z,4284.00
2023-05-13T08:45:59.590Z,4540.00
2023-05-13T08:46:59.545Z,4752.00
2023-05-13T08:47:59.550Z,7156.00
2023-05-13T08:48:59.512Z,15752.00
2023-05-13T08:49:59.505Z,892.00
2023-05-13T08:50:59.492Z,12528.00
2023-05-13T08:52:04.549Z,18816.00
2023-05-13T08:52:59.477Z,9008.00
2023-05-13T08:53:59.460Z,4672.00
2023-05-13T08:54:59.449Z,4692.00
2023-05-13T08:55:59.457Z,7352.00
2023-05-13T08:56:59.439Z,12500.00
2023-05-13T08:57:59.446Z,9508.00
2023-05-13T08:58:59.409Z,9280.00
2023-05-13T08:59:59.446Z,9160.00
2023-05-13T09:00:59.395Z,23008.00
2023-05-13T09:01:59.370Z,22048.00
2023-05-13T09:03:04.448Z,23328.00
2023-05-13T09:03:59.373Z,19776.00
2023-05-13T09:04:59.370Z,14104.00
2023-05-13T09:05:59.344Z,8984.00
2023-05-13T09:06:59.312Z,5384.00
2023-05-13T09:07:59.305Z,5868.00
2023-05-13T09:08:59.290Z,16704.00
2023-05-13T09:09:59.312Z,12828.00
2023-05-13T09:10:59.290Z,11868.00
2023-05-13T09:11:59.258Z,7272.00
2023-05-13T09:12:59.267Z,7700.00
2023-05-13T09:14:04.265Z,5144.00
2023-05-13T09:14:59.235Z,4396.00
2023-05-13T09:15:59.296Z,4488.00
2023-05-13T09:16:59.202Z,4572.00
2023-05-13T09:17:59.330Z,4736.00
2023-05-13T09:18:59.402Z,5168.00
2023-05-13T09:19:59.265Z,5452.00
2023-05-13T09:20:59.156Z,5716.00
2023-05-13T09:21:59.173Z,6288.00
2023-05-13T09:22:59.134Z,13384.00
2023-05-13T09:23:59.128Z,32384.00
2023-05-13T09:25:04.145Z,22432.00
2023-05-13T09:25:59.102Z,10792.00
2023-05-13T09:26:59.087Z,7592.00
2023-05-13T09:27:59.296Z,8344.00
2023-05-13T09:28:59.076Z,9776.00
2023-05-13T09:29:59.082Z,17792.00
2023-05-13T09:30:59.052Z,16160.00
2023-05-13T09:31:59.055Z,54336.00
2023-05-13T09:32:59.101Z,36832.00
2023-05-13T09:33:59.041Z,78464.00
2023-05-13T09:34:59.014Z,39072.00
2023-05-13T09:36:04.026Z,27904.00
2023-05-13T09:36:59.000Z,51520.00
2023-05-13T09:37:58.972Z,47040.00
2023-05-13T09:38:58.964Z,33856.00
2023-05-13T09:39:58.966Z,28480.00
2023-05-13T09:40:58.932Z,11120.00
2023-05-13T09:41:58.924Z,46848.00
2023-05-13T09:42:58.920Z,34080.00
2023-05-13T09:43:58.918Z,12024.00
2023-05-13T09:44:58.890Z,9676.00
2023-05-13T09:45:58.904Z,8968.00
2023-05-13T09:47:03.962Z,10044.00
2023-05-13T09:47:58.868Z,11116.00
2023-05-13T09:48:58.898Z,11844.00
2023-05-13T09:49:58.843Z,12248.00
2023-05-13T09:50:58.823Z,11384.00
2023-05-13T09:51:58.844Z,12088.00
2023-05-13T09:52:58.832Z,13264.00
2023-05-13T09:53:58.792Z,13880.00
2023-05-13T09:54:58.778Z,12856.00
2023-05-13T09:55:58.775Z,13120.00
2023-05-13T09:56:58.761Z,13284.00
2023-05-13T09:58:03.805Z,13928.00
2023-05-13T09:58:58.764Z,15824.00
2023-05-13T09:59:58.737Z,17024.00
2023-05-13T10:00:58.819Z,12836.00
2023-05-13T10:01:58.714Z,11408.00
2023-05-13T10:02:58.788Z,12212.00
2023-05-13T10:03:58.719Z,11532.00
2023-05-13T10:04:58.666Z,11088.00
2023-05-13T10:06:00.515Z,11148.00
2023-05-13T10:06:58.666Z,11060.00
2023-05-13T10:07:58.635Z,12880.00
2023-05-13T10:09:03.660Z,23552.00
2023-05-13T10:09:58.619Z,13284.00
2023-05-13T10:10:58.604Z,16096.00
2023-05-13T10:11:58.603Z,10028.00
2023-05-13T10:12:58.598Z,20864.00
2023-05-13T10:13:58.583Z,8308.00
2023-05-13T10:14:58.566Z,7424.00
2023-05-13T10:15:58.559Z,21440.00
2023-05-13T10:16:58.711Z,9684.00
2023-05-13T10:17:58.560Z,8232.00
2023-05-13T10:18:58.696Z,8472.00
2023-05-13T10:20:03.531Z,10892.00
2023-05-13T10:20:58.501Z,18048.00
2023-05-13T10:21:58.516Z,10532.00
2023-05-13T10:22:58.471Z,11328.00
2023-05-13T10:23:58.467Z,11084.00
2023-05-13T10:24:58.445Z,7648.00
2023-05-13T10:25:58.458Z,11204.00
2023-05-13T10:26:58.425Z,16768.00
2023-05-13T10:27:58.433Z,9052.00
2023-05-13T10:28:58.401Z,11776.00
2023-05-13T10:29:58.401Z,15396.00
2023-05-13T10:31:03.418Z,35808.00
2023-05-13T10:31:58.406Z,8200.00
2023-05-13T10:32:58.440Z,13660.00
2023-05-13T10:33:58.368Z,35968.00
2023-05-13T10:34:58.366Z,53504.00
2023-05-13T10:35:58.362Z,59360.00
2023-05-13T10:36:58.316Z,64960.00
2023-05-13T10:37:58.299Z,16960.00
2023-05-13T10:38:58.299Z,8104.00
2023-05-13T10:39:58.324Z,20512.00
2023-05-13T10:40:58.263Z,24160.00
2023-05-13T10:42:03.287Z,8756.00
2023-05-13T10:42:58.240Z,28000.00
2023-05-13T10:43:58.234Z,61856.00
2023-05-13T10:44:58.239Z,9308.00
2023-05-13T10:45:58.305Z,54368.00
2023-05-13T10:46:58.198Z,8052.00
2023-05-13T10:47:58.400Z,14652.00
2023-05-13T10:48:58.191Z,51712.00
2023-05-13T10:49:58.180Z,20544.00
2023-05-13T10:50:58.176Z,56288.00
2023-05-13T10:51:58.160Z,9888.00
2023-05-13T10:53:03.151Z,10568.00
2023-05-13T10:53:58.121Z,23200.00
2023-05-13T10:54:58.121Z,12268.00
2023-05-13T10:55:58.102Z,8968.00
2023-05-13T10:56:58.090Z,17248.00
2023-05-13T10:57:58.085Z,30464.00
2023-05-13T10:58:58.073Z,23648.00
2023-05-13T10:59:58.067Z,22496.00
2023-05-13T11:00:58.042Z,24608.00
2023-05-13T11:01:58.069Z,39840.00
2023-05-13T11:02:58.102Z,7172.00
2023-05-13T11:04:03.213Z,6168.00
2023-05-13T11:04:58.005Z,52800.00
2023-05-13T11:05:58.015Z,6456.00
2023-05-13T11:06:58.007Z,21376.00
2023-05-13T11:07:57.991Z,62304.00
2023-05-13T11:08:57.962Z,42656.00
2023-05-13T11:09:57.947Z,37024.00
2023-05-13T11:10:57.960Z,24512.00
2023-05-13T11:11:57.942Z,63648.00
2023-05-13T11:12:57.917Z,57984.00
2023-05-13T11:13:57.913Z,5220.00
2023-05-13T11:15:02.915Z,3768.00
2023-05-13T11:15:57.900Z,3868.00
2023-05-13T11:16:57.911Z,4204.00
2023-05-13T11:17:57.976Z,5200.00
2023-05-13T11:18:57.938Z,82944.00
2023-05-13T11:19:57.837Z,85184.00
2023-05-13T11:20:57.844Z,78048.00
2023-05-13T11:21:57.812Z,85984.00
2023-05-13T11:22:57.912Z,86112.00
2023-05-13T11:23:57.824Z,81472.00
2023-05-13T11:24:57.783Z,9312.00
2023-05-13T11:26:02.792Z,7868.00
2023-05-13T11:26:57.767Z,5292.00
2023-05-13T11:27:57.761Z,4072.00
2023-05-13T11:28:57.766Z,3324.00
2023-05-13T11:29:57.733Z,2988.00
2023-05-13T11:30:57.769Z,3156.00
2023-05-13T11:32:00.028Z,3616.00
2023-05-13T11:32:57.754Z,3888.00
2023-05-13T11:33:57.685Z,4764.00
2023-05-13T11:34:57.710Z,5200.00
2023-05-13T11:35:57.667Z,4772.00
2023-05-13T11:37:02.671Z,4204.00
2023-05-13T11:37:59.858Z,3940.00
2023-05-13T11:38:57.652Z,3424.00
2023-05-13T11:39:57.623Z,2476.00
2023-05-13T11:40:57.621Z,1968.00
2023-05-13T11:41:57.613Z,1804.00
2023-05-13T11:42:57.599Z,1724.00
2023-05-13T11:43:57.576Z,1672.00
2023-05-13T11:44:57.560Z,1684.00
2023-05-13T11:45:57.602Z,1764.00
2023-05-13T11:46:57.585Z,1852.00
2023-05-13T11:48:02.597Z,2024.00
2023-05-13T11:48:57.564Z,2216.00
2023-05-13T11:49:57.505Z,2396.00
2023-05-13T11:50:57.519Z,2580.00
2023-05-13T11:51:57.487Z,2728.00
2023-05-13T11:52:57.514Z,2920.00
2023-05-13T11:53:57.459Z,3192.00
2023-05-13T11:54:57.488Z,3460.00
2023-05-13T11:55:57.447Z,3776.00
2023-05-13T11:56:57.429Z,4148.00
2023-05-13T11:57:57.433Z,4364.00
2023-05-13T11:59:02.466Z,4252.00
2023-05-13T11:59:57.438Z,4172.00
2023-05-13T12:00:57.393Z,4676.00
2023-05-13T12:01:57.414Z,5512.00
2023-05-13T12:02:57.503Z,5388.00
2023-05-13T12:03:57.351Z,5380.00
2023-05-13T12:04:57.372Z,7828.00
2023-05-13T12:05:57.368Z,3736.00
2023-05-13T12:06:57.343Z,2960.00
2023-05-13T12:07:57.337Z,2728.00
2023-05-13T12:08:57.299Z,2888.00
2023-05-13T12:10:02.326Z,3136.00
2023-05-13T12:10:57.298Z,3388.00
2023-05-13T12:11:57.294Z,3684.00
2023-05-13T12:12:57.274Z,3552.00
2023-05-13T12:13:57.257Z,3688.00
2023-05-13T12:14:57.232Z,3704.00
2023-05-13T12:15:57.275Z,3632.00
2023-05-13T12:16:57.227Z,3676.00
2023-05-13T12:17:57.255Z,4140.00
2023-05-13T12:18:57.201Z,4552.00
2023-05-13T12:19:57.181Z,4784.00
2023-05-13T12:21:02.200Z,4816.00
2023-05-13T12:21:57.154Z,11100.00
2023-05-13T12:22:57.303Z,7348.00
2023-05-13T12:23:57.140Z,98272.00
2023-05-13T12:24:57.131Z,53216.00
2023-05-13T12:25:57.148Z,18688.00
2023-05-13T12:26:57.105Z,7868.00
2023-05-13T12:27:57.089Z,9188.00
2023-05-13T12:28:57.076Z,7952.00
2023-05-13T12:29:57.078Z,7028.00
2023-05-13T12:30:57.186Z,6908.00
2023-05-13T12:32:02.064Z,6940.00
2023-05-13T12:32:57.089Z,7092.00
2023-05-13T12:33:57.022Z,7900.00
2023-05-13T12:34:57.021Z,7712.00
2023-05-13T12:35:57.029Z,7280.00
2023-05-13T12:36:57.025Z,5108.00
2023-05-13T12:37:56.971Z,3192.00
2023-05-13T12:38:59.846Z,3480.00
2023-05-13T12:39:56.967Z,3896.00
2023-05-13T12:40:56.941Z,4352.00
2023-05-13T12:41:56.957Z,5412.00
2023-05-13T12:43:02.003Z,7232.00
2023-05-13T12:43:56.930Z,8772.00
2023-05-13T12:44:56.932Z,10092.00
2023-05-13T12:45:56.904Z,9364.00
2023-05-13T12:46:56.879Z,10176.00
2023-05-13T12:47:56.973Z,9668.00
2023-05-13T12:48:56.859Z,8972.00
2023-05-13T12:49:56.916Z,9656.00
2023-05-13T12:50:56.830Z,9960.00
2023-05-13T12:51:56.890Z,9908.00
2023-05-13T12:52:56.805Z,9448.00
2023-05-13T12:53:56.834Z,9392.00
2023-05-13T12:54:56.791Z,10400.00
2023-05-13T12:56:01.801Z,10268.00
2023-05-13T12:56:56.766Z,9860.00
2023-05-13T12:57:56.781Z,11048.00
2023-05-13T12:58:56.779Z,11064.00
2023-05-13T12:59:56.754Z,11064.00
2023-05-13T13:00:56.786Z,10352.00
2023-05-13T13:01:56.708Z,10488.00
2023-05-13T13:02:56.867Z,9908.00
2023-05-13T13:03:56.808Z,9568.00
2023-05-13T13:04:56.676Z,9504.00
2023-05-13T13:05:56.672Z,9464.00
2023-05-13T13:07:01.681Z,8808.00
2023-05-13T13:07:56.642Z,8340.00
2023-05-13T13:08:56.637Z,7576.00
2023-05-13T13:09:56.620Z,6980.00
2023-05-13T13:10:56.606Z,6732.00
2023-05-13T13:11:56.625Z,6756.00
2023-05-13T13:12:56.584Z,6652.00
2023-05-13T13:13:56.612Z,6348.00
2023-05-13T13:14:56.565Z,6084.00
2023-05-13T13:15:56.575Z,5832.00
2023-05-13T13:16:56.746Z,5672.00
2023-05-13T13:18:01.692Z,5704.00
2023-05-13T13:18:58.288Z,6048.00
2023-05-13T13:19:56.524Z,6336.00
2023-05-13T13:20:56.506Z,6176.00
2023-05-13T13:21:56.487Z,6408.00
2023-05-13T13:22:56.483Z,6652.00
2023-05-13T13:23:56.490Z,6776.00
2023-05-13T13:24:56.462Z,6904.00
2023-05-13T13:25:56.445Z,6968.00
2023-05-13T13:26:56.680Z,6988.00
2023-05-13T13:27:56.448Z,6872.00
2023-05-13T13:29:01.458Z,6672.00
2023-05-13T13:29:56.417Z,6696.00
2023-05-13T13:30:56.394Z,6548.00
2023-05-13T13:31:56.405Z,6532.00
2023-05-13T13:32:56.389Z,7112.00
2023-05-13T13:33:56.354Z,7168.00
2023-05-13T13:34:56.345Z,7112.00
2023-05-13T13:35:56.355Z,6416.00
2023-05-13T13:36:56.330Z,6672.00
2023-05-13T13:37:56.309Z,7572.00
2023-05-13T13:38:56.303Z,7704.00
2023-05-13T13:40:01.335Z,7032.00
2023-05-13T13:40:56.276Z,6260.00
2023-05-13T13:41:56.302Z,6428.00
2023-05-13T13:42:56.255Z,5848.00
2023-05-13T13:43:56.246Z,5532.00
2023-05-13T13:44:56.253Z,5608.00
2023-05-13T13:45:56.315Z,6440.00
2023-05-13T13:46:56.235Z,6568.00
2023-05-13T13:47:56.268Z,6228.00
2023-05-13T13:48:56.210Z,6112.00
2023-05-13T13:49:56.175Z,6048.00
2023-05-13T13:51:01.200Z,6024.00
2023-05-13T13:51:56.175Z,5972.00
2023-05-13T13:52:56.148Z,6048.00
2023-05-13T13:53:56.175Z,5544.00
2023-05-13T13:54:56.130Z,4892.00
2023-05-13T13:55:56.114Z,5396.00
2023-05-13T13:56:56.113Z,5876.00
2023-05-13T13:57:56.095Z,6084.00
2023-05-13T13:58:56.081Z,5880.00
2023-05-13T13:59:56.083Z,6268.00
2023-05-13T14:00:56.116Z,6212.00
2023-05-13T14:02:01.140Z,6356.00
2023-05-13T14:02:56.102Z,5876.00
2023-05-13T14:03:56.430Z,5168.00
2023-05-13T14:04:56.063Z,4832.00
2023-05-13T14:05:56.265Z,5140.00
2023-05-13T14:06:55.990Z,5564.00
2023-05-13T14:07:56.192Z,5956.00
2023-05-13T14:08:55.978Z,5880.00
2023-05-13T14:09:56.048Z,5948.00
2023-05-13T14:10:55.948Z,6036.00
2023-05-13T14:11:55.938Z,6084.00
2023-05-13T14:13:00.962Z,6036.00
2023-05-13T14:13:55.914Z,6112.00
2023-05-13T14:14:56.005Z,5972.00
2023-05-13T14:15:55.923Z,5760.00
2023-05-13T14:16:55.909Z,5488.00
2023-05-13T14:17:55.974Z,5220.00
2023-05-13T14:18:55.954Z,5024.00
2023-05-13T14:19:55.994Z,4948.00
2023-05-13T14:20:55.861Z,4880.00
2023-05-13T14:21:55.827Z,4780.00
2023-05-13T14:22:55.826Z,4648.00
2023-05-13T14:24:00.860Z,4552.00
2023-05-13T14:24:55.994Z,4372.00
2023-05-13T14:25:55.835Z,4172.00
2023-05-13T14:26:55.778Z,4044.00
2023-05-13T14:27:55.785Z,3724.00
2023-05-13T14:28:55.780Z,3720.00
2023-05-13T14:29:55.741Z,3560.00
2023-05-13T14:30:55.734Z,3576.00
2023-05-13T14:31:55.783Z,3700.00
2023-05-13T14:32:55.750Z,4104.00
2023-05-13T14:33:55.762Z,4044.00
2023-05-13T14:35:00.716Z,4124.00
2023-05-13T14:35:55.685Z,3892.00
2023-05-13T14:36:55.678Z,3852.00
2023-05-13T14:37:55.667Z,3392.00
2023-05-13T14:38:55.662Z,3548.00
2023-05-13T14:39:55.653Z,3836.00
2023-05-13T14:40:55.629Z,3820.00
2023-05-13T14:41:55.614Z,3540.00
2023-05-13T14:42:55.610Z,4660.00
2023-05-13T14:43:55.589Z,4440.00
2023-05-13T14:44:55.578Z,3568.00
2023-05-13T14:46:00.635Z,2672.00
2023-05-13T14:46:55.591Z,2088.00
2023-05-13T14:47:55.578Z,2592.00
2023-05-13T14:48:55.555Z,2032.00
2023-05-13T14:49:55.527Z,2204.00
2023-05-13T14:50:55.519Z,2368.00
2023-05-13T14:51:55.531Z,2272.00
2023-05-13T14:52:55.499Z,2336.00
2023-05-13T14:53:55.472Z,2336.00
2023-05-13T14:54:55.468Z,2244.00
2023-05-13T14:55:55.452Z,1932.00
2023-05-13T14:57:00.496Z,1648.00
2023-05-13T14:57:55.427Z,1432.00
2023-05-13T14:58:55.424Z,1284.00
2023-05-13T14:59:55.409Z,1200.00
2023-05-13T15:00:55.426Z,1092.00
2023-05-13T15:01:55.476Z,980.00
2023-05-13T15:02:55.548Z,908.00
2023-05-13T15:03:55.361Z,856.00
2023-05-13T15:04:55.376Z,884.00
2023-05-13T15:05:55.357Z,1004.00
2023-05-13T15:06:55.337Z,1204.00
2023-05-13T15:08:00.342Z,1364.00
2023-05-13T15:08:55.330Z,1476.00
2023-05-13T15:09:55.297Z,1512.00
2023-05-13T15:10:55.293Z,1576.00
2023-05-13T15:11:55.268Z,1616.00
2023-05-13T15:12:55.265Z,1740.00
2023-05-13T15:13:55.254Z,1888.00
2023-05-13T15:14:55.285Z,1956.00
2023-05-13T15:15:55.240Z,2008.00
2023-05-13T15:16:55.274Z,2164.00
2023-05-13T15:17:55.270Z,2336.00
2023-05-13T15:19:00.280Z,2636.00
2023-05-13T15:19:55.200Z,2708.00
2023-05-13T15:20:55.218Z,2472.00
2023-05-13T15:21:55.172Z,2392.00
2023-05-13T15:22:55.153Z,2164.00
2023-05-13T15:23:55.152Z,2052.00
2023-05-13T15:24:55.142Z,1968.00
2023-05-13T15:25:55.116Z,1968.00
2023-05-13T15:26:55.125Z,1988.00
2023-05-13T15:27:55.097Z,2524.00
2023-05-13T15:28:55.090Z,2504.00
2023-05-13T15:30:00.128Z,2152.00
2023-05-13T15:30:55.125Z,2192.00
2023-05-13T15:31:55.049Z,2028.00
2023-05-13T15:32:55.129Z,2436.00
2023-05-13T15:33:55.044Z,2524.00
2023-05-13T15:34:55.028Z,2220.00
2023-05-13T15:35:55.010Z,2316.00
2023-05-13T15:36:55.020Z,2236.00
2023-05-13T15:37:55.000Z,2296.00
2023-05-13T15:38:55.050Z,2484.00
2023-05-13T15:39:54.976Z,2504.00
2023-05-13T15:41:00.280Z,2460.00
2023-05-13T15:41:54.940Z,2372.00
2023-05-13T15:42:54.930Z,2380.00
2023-05-13T15:43:54.932Z,2336.00
2023-05-13T15:44:54.921Z,2348.00
2023-05-13T15:45:55.001Z,2504.00
2023-05-13T15:46:55.008Z,2780.00
2023-05-13T15:47:54.913Z,2776.00
2023-05-13T15:48:54.875Z,2600.00
2023-05-13T15:49:54.868Z,2588.00
2023-05-13T15:50:54.864Z,2564.00
2023-05-13T15:51:59.880Z,2652.00
2023-05-13T15:52:54.828Z,2792.00
2023-05-13T15:53:54.834Z,2828.00
2023-05-13T15:54:54.799Z,2792.00
2023-05-13T15:55:54.786Z,2960.00
2023-05-13T15:56:54.802Z,3120.00
2023-05-13T15:57:54.771Z,3668.00
2023-05-13T15:58:54.762Z,3992.00
2023-05-13T15:59:54.754Z,3868.00
2023-05-13T16:00:54.747Z,3964.00
2023-05-13T16:01:54.734Z,3480.00
2023-05-13T16:02:59.808Z,3088.00
2023-05-13T16:03:54.735Z,2868.00
2023-05-13T16:04:54.684Z,2712.00
2023-05-13T16:05:54.675Z,2204.00
2023-05-13T16:06:54.672Z,1972.00
2023-05-13T16:07:54.678Z,1828.00
2023-05-13T16:08:56.404Z,1744.00
2023-05-13T16:09:54.639Z,1568.00
2023-05-13T16:10:54.636Z,1396.00
2023-05-13T16:11:54.609Z,1080.00
2023-05-13T16:12:54.619Z,768.00
2023-05-13T16:13:59.602Z,640.00
2023-05-13T16:14:54.678Z,516.00
2023-05-13T16:15:54.630Z,420.00
2023-05-13T16:16:54.572Z,388.00
2023-05-13T16:17:54.677Z,424.00
2023-05-13T16:18:54.599Z,440.00
2023-05-13T16:19:54.584Z,472.00
2023-05-13T16:20:54.525Z,488.00
2023-05-13T16:21:54.561Z,512.00
2023-05-13T16:22:54.488Z,524.00
2023-05-13T16:23:54.498Z,552.00
2023-05-13T16:24:59.490Z,592.00
2023-05-13T16:25:54.505Z,652.00
2023-05-13T16:26:54.639Z,712.00
2023-05-13T16:27:54.492Z,728.00
2023-05-13T16:28:54.463Z,692.00
2023-05-13T16:29:54.511Z,668.00
2023-05-13T16:30:55.415Z,656.00
2023-05-13T16:31:54.516Z,648.00
2023-05-13T16:32:54.560Z,628.00
2023-05-13T16:33:54.363Z,612.00
2023-05-13T16:34:54.356Z,584.00
2023-05-13T16:35:59.396Z,588.00
2023-05-13T16:36:54.421Z,604.00
2023-05-13T16:37:54.372Z,620.00
2023-05-13T16:38:54.305Z,632.00
2023-05-13T16:39:54.326Z,668.00
2023-05-13T16:40:54.300Z,712.00
2023-05-13T16:41:54.270Z,760.00
2023-05-13T16:42:56.254Z,792.00
2023-05-13T16:43:54.401Z,816.00
2023-05-13T16:44:54.240Z,816.00
2023-05-13T16:45:54.239Z,808.00
2023-05-13T16:46:59.237Z,784.00
2023-05-13T16:47:54.303Z,768.00
2023-05-13T16:48:54.221Z,760.00
2023-05-13T16:49:54.232Z,744.00
2023-05-13T16:50:54.187Z,724.00
2023-05-13T16:51:54.166Z,712.00
2023-05-13T16:52:54.157Z,716.00
2023-05-13T16:53:54.152Z,716.00
2023-05-13T16:54:54.901Z,708.00
2023-05-13T16:55:54.146Z,696.00
2023-05-13T16:56:54.133Z,692.00
2023-05-13T16:57:59.114Z,704.00
2023-05-13T16:58:54.094Z,724.00
2023-05-13T16:59:54.248Z,748.00
2023-05-13T17:00:54.185Z,756.00
2023-05-13T17:01:54.085Z,756.00
2023-05-13T17:02:54.137Z,768.00
2023-05-13T17:03:54.036Z,812.00